createdAt,value
2018-01-26T00:01:04.880Z,100983.25
2018-01-26T00:03:32.983Z,100978.28
2018-01-26T00:06:04.110Z,100976.66
2018-01-26T00:08:32.220Z,100978.91
2018-01-26T00:11:08.924Z,100977.98
2018-01-26T00:13:37.029Z,100978.80
2018-01-26T00:16:05.115Z,100978.91
2018-01-26T00:18:33.228Z,100969.30
2018-01-26T00:21:01.336Z,100965.68
2018-01-26T00:23:29.482Z,100972.10
2018-01-26T00:25:57.533Z,100957.23
2018-01-26T00:28:25.653Z,100955.16
2018-01-26T00:30:53.751Z,100963.00
2018-01-26T00:33:21.868Z,100956.00
2018-01-26T00:35:49.956Z,100964.37
2018-01-26T00:38:18.045Z,100961.87
2018-01-26T00:40:46.170Z,100966.84
2018-01-26T00:43:14.257Z,100964.87
2018-01-26T00:45:42.352Z,100968.26
2018-01-26T00:48:10.464Z,100977.54
2018-01-26T00:50:38.590Z,100975.28
2018-01-26T00:53:06.665Z,100974.64
2018-01-26T00:55:34.780Z,100966.49
2018-01-26T00:58:02.887Z,100963.11
2018-01-26T01:00:31.000Z,100958.06
2018-01-26T01:02:59.091Z,100960.73
2018-01-26T01:05:27.195Z,100967.62
2018-01-26T01:07:55.286Z,100972.45
2018-01-26T01:10:23.417Z,100974.32
2018-01-26T01:12:51.505Z,100977.74
2018-01-26T01:15:19.597Z,100975.87
2018-01-26T01:17:47.716Z,100967.41
2018-01-26T01:20:15.818Z,100963.86
2018-01-26T01:22:43.931Z,100968.42
2018-01-26T01:25:12.035Z,100980.05
2018-01-26T01:27:40.138Z,100975.33
2018-01-26T01:30:08.239Z,100976.03
2018-01-26T01:32:36.344Z,100981.37
2018-01-26T01:35:04.455Z,100991.66
2018-01-26T01:37:32.556Z,100985.49
2018-01-26T01:40:00.672Z,100990.53
2018-01-26T01:42:28.761Z,100986.08
2018-01-26T01:44:56.871Z,100984.96
2018-01-26T01:47:28.430Z,100983.84
2018-01-26T01:49:56.527Z,100982.34
2018-01-26T01:52:25.806Z,100983.25
2018-01-26T01:54:53.925Z,100988.17
2018-01-26T01:57:22.030Z,100994.91
2018-01-26T01:59:50.143Z,100992.64
2018-01-26T02:02:18.229Z,100994.78
2018-01-26T02:04:46.417Z,100997.03
2018-01-26T02:07:14.501Z,100996.33
2018-01-26T02:09:42.628Z,100997.59
2018-01-26T02:12:10.736Z,100998.91
2018-01-26T02:14:38.825Z,101002.28
2018-01-26T02:17:06.944Z,100999.70
2018-01-26T02:19:35.030Z,101002.98
2018-01-26T02:22:03.148Z,101000.62
2018-01-26T02:24:31.253Z,101002.80
2018-01-26T02:26:59.357Z,101002.80
2018-01-26T02:29:27.457Z,101012.55
2018-01-26T02:31:55.568Z,101012.87
2018-01-26T02:34:23.655Z,101007.61
2018-01-26T02:36:51.745Z,101010.29
2018-01-26T02:39:19.863Z,101007.70
2018-01-26T02:41:47.980Z,101004.62
2018-01-26T02:44:16.083Z,101011.30
2018-01-26T02:46:44.185Z,101009.11
2018-01-26T02:49:12.303Z,101011.24
2018-01-26T02:51:40.392Z,101015.41
2018-01-26T02:54:08.496Z,101004.72
2018-01-26T02:56:36.597Z,101006.15
2018-01-26T02:59:04.708Z,100995.75
2018-01-26T03:01:32.808Z,100988.48
2018-01-26T03:04:00.913Z,100990.30
2018-01-26T03:06:29.014Z,100987.67
2018-01-26T03:08:57.101Z,100987.73
2018-01-26T03:11:25.232Z,100988.34
2018-01-26T03:13:53.336Z,100990.81
2018-01-26T03:16:21.451Z,100991.23
2018-01-26T03:18:49.547Z,100998.53
2018-01-26T03:21:17.633Z,100998.62
2018-01-26T03:23:45.733Z,100997.72
2018-01-26T03:26:13.825Z,100999.52
2018-01-26T03:28:41.930Z,101006.84
2018-01-26T03:31:10.015Z,101013.47
2018-01-26T03:33:38.113Z,101014.25
2018-01-26T03:36:06.231Z,101014.88
2018-01-26T03:38:34.344Z,101029.20
2018-01-26T03:41:02.452Z,101025.88
2018-01-26T03:43:30.568Z,101030.95
2018-01-26T03:45:58.675Z,101036.11
2018-01-26T03:48:26.766Z,101041.98
2018-01-26T03:50:54.871Z,101030.47
2018-01-26T03:53:22.966Z,101032.43
2018-01-26T03:55:51.067Z,101035.45
2018-01-26T03:58:19.153Z,101027.62
2018-01-26T04:00:47.268Z,101023.08
2018-01-26T04:03:31.697Z,101033.60
2018-01-26T04:05:59.799Z,101043.33
2018-01-26T04:08:27.901Z,101035.17
2018-01-26T04:10:56.009Z,101041.20
2018-01-26T04:13:28.220Z,101046.36
2018-01-26T04:15:56.325Z,101049.94
2018-01-26T04:18:24.431Z,101054.84
2018-01-26T04:20:52.535Z,101057.19
2018-01-26T04:23:20.642Z,101061.13
2018-01-26T04:25:48.741Z,101069.34
2018-01-26T04:28:16.834Z,101072.67
2018-01-26T04:30:44.943Z,101071.94
2018-01-26T04:33:13.048Z,101070.18
2018-01-26T04:35:41.138Z,101078.59
2018-01-26T04:38:09.242Z,101075.67
2018-01-26T04:40:37.333Z,101069.31
2018-01-26T04:43:05.435Z,101081.81
2018-01-26T04:45:33.525Z,101078.39
2018-01-26T04:48:01.652Z,101078.78
2018-01-26T04:50:29.752Z,101085.03
2018-01-26T04:52:57.845Z,101081.92
2018-01-26T04:55:25.945Z,101089.02
2018-01-26T04:57:54.072Z,101098.41
2018-01-26T05:00:22.187Z,101103.59
2018-01-26T05:02:50.284Z,101104.81
2018-01-26T05:05:18.387Z,101106.79
2018-01-26T05:07:50.383Z,101106.44
2018-01-26T05:10:18.491Z,101104.61
2018-01-26T05:12:46.609Z,101097.63
2018-01-26T05:15:14.716Z,101100.74
2018-01-26T05:17:42.829Z,101112.02
2018-01-26T05:20:10.929Z,101112.22
2018-01-26T05:22:39.044Z,101114.67
2018-01-26T05:25:07.133Z,101105.83
2018-01-26T05:27:35.249Z,101103.97
2018-01-26T05:30:03.338Z,101099.62
2018-01-26T05:32:31.456Z,101102.55
2018-01-26T05:35:04.757Z,101099.06
2018-01-26T05:40:28.342Z,101107.29
2018-01-26T05:42:56.446Z,101109.36
2018-01-26T05:45:24.541Z,101116.28
2018-01-26T05:47:52.648Z,101112.29
2018-01-26T05:50:20.746Z,101105.59
2018-01-26T05:52:48.855Z,101111.03
2018-01-26T05:55:16.949Z,101117.54
2018-01-26T05:57:45.065Z,101122.01
2018-01-26T06:00:13.170Z,101122.09
2018-01-26T06:02:41.361Z,101131.36
2018-01-26T06:05:09.721Z,101129.02
2018-01-26T06:07:37.938Z,101138.70
2018-01-26T06:10:06.126Z,101145.03
2018-01-26T06:12:34.288Z,101141.91
2018-01-26T06:15:02.466Z,101140.41
2018-01-26T06:17:30.675Z,101142.31
2018-01-26T06:19:58.808Z,101146.09
2018-01-26T06:22:26.954Z,101143.96
2018-01-26T06:25:00.750Z,101145.14
2018-01-26T06:27:28.912Z,101140.59
2018-01-26T06:29:57.020Z,101142.94
2018-01-26T06:32:25.107Z,101149.16
2018-01-26T06:34:55.177Z,101161.44
2018-01-26T06:37:23.280Z,101163.63
2018-01-26T06:39:51.366Z,101163.98
2018-01-26T06:45:12.579Z,101175.55
2018-01-26T06:47:40.696Z,101172.77
2018-01-26T06:50:08.808Z,101170.23
2018-01-26T06:52:36.942Z,101175.75
2018-01-26T06:55:05.057Z,101184.57
2018-01-26T06:57:33.147Z,101186.02
2018-01-26T07:00:01.313Z,101192.98
2018-01-26T07:02:40.086Z,101193.31
2018-01-26T07:05:18.781Z,101196.11
2018-01-26T07:07:50.723Z,101196.21
2018-01-26T07:10:18.845Z,101214.98
2018-01-26T07:12:47.868Z,101215.36
2018-01-26T07:15:15.976Z,101213.92
2018-01-26T07:17:44.078Z,101224.00
2018-01-26T07:20:12.187Z,101226.48
2018-01-26T07:22:40.282Z,101235.43
2018-01-26T07:25:08.398Z,101249.23
2018-01-26T07:27:36.501Z,101251.32
2018-01-26T07:30:04.601Z,101260.17
2018-01-26T07:32:32.697Z,101261.73
2018-01-26T07:35:00.808Z,101266.11
2018-01-26T07:37:28.942Z,101265.23
2018-01-26T07:39:57.990Z,101268.30
2018-01-26T07:42:26.112Z,101271.78
2018-01-26T07:44:55.151Z,101274.44
2018-01-26T07:47:23.245Z,101276.55
2018-01-26T07:49:51.382Z,101290.52
2018-01-26T07:52:19.489Z,101286.45
2018-01-26T07:54:47.585Z,101286.18
2018-01-26T07:57:15.678Z,101288.61
2018-01-26T07:59:43.782Z,101282.75
2018-01-26T08:02:11.893Z,101274.63
2018-01-26T08:04:39.993Z,101286.30
2018-01-26T08:07:10.011Z,101284.27
2018-01-26T08:09:38.105Z,101292.50
2018-01-26T08:12:06.227Z,101298.34
2018-01-26T08:14:34.327Z,101302.16
2018-01-26T08:17:03.297Z,101304.73
2018-01-26T08:19:31.412Z,101299.08
2018-01-26T08:21:59.503Z,101302.13
2018-01-26T08:24:27.624Z,101293.15
2018-01-26T08:26:55.718Z,101298.39
2018-01-26T08:29:23.844Z,101299.10
2018-01-26T08:31:51.950Z,101305.66
2018-01-26T08:34:20.056Z,101307.05
2018-01-26T08:36:48.176Z,101309.43
2018-01-26T08:39:16.283Z,101312.95
2018-01-26T08:41:44.403Z,101307.44
2018-01-26T08:44:12.505Z,101313.80
2018-01-26T08:46:40.611Z,101309.59
2018-01-26T08:49:08.728Z,101317.45
2018-01-26T08:51:36.832Z,101320.40
2018-01-26T08:54:05.926Z,101325.73
2018-01-26T08:56:36.008Z,101324.81
2018-01-26T08:59:04.124Z,101330.84
2018-01-26T09:01:34.179Z,101324.46
2018-01-26T09:04:02.282Z,101324.95
2018-01-26T09:06:30.401Z,101319.77
2018-01-26T09:08:58.500Z,101322.96
2018-01-26T09:11:26.614Z,101336.39
2018-01-26T09:14:08.817Z,101333.05
2018-01-26T09:16:36.918Z,101349.00
2018-01-26T09:19:22.314Z,101351.80
2018-01-26T09:21:55.419Z,101355.73
2018-01-26T09:24:36.457Z,101359.88
2018-01-26T09:27:04.580Z,101360.70
2018-01-26T09:29:32.673Z,101366.16
2018-01-26T09:32:12.471Z,101379.23
2018-01-26T09:34:40.599Z,101372.91
2018-01-26T09:37:13.838Z,101378.06
2018-01-26T09:39:41.933Z,101374.91
2018-01-26T09:42:10.035Z,101380.23
2018-01-26T09:47:37.354Z,101380.56
2018-01-26T09:50:05.464Z,101385.03
2018-01-26T09:52:33.589Z,101392.38
2018-01-26T09:55:01.698Z,101391.15
2018-01-26T09:57:29.811Z,101397.57
2018-01-26T10:00:12.041Z,101407.78
2018-01-26T10:02:40.170Z,101406.75
2018-01-26T10:05:08.289Z,101411.42
2018-01-26T10:07:36.405Z,101414.20
2018-01-26T10:10:04.508Z,101412.89
2018-01-26T10:12:32.614Z,101416.75
2018-01-26T10:15:00.736Z,101416.19
2018-01-26T10:17:28.823Z,101418.72
2018-01-26T10:19:56.942Z,101413.57
2018-01-26T10:22:25.043Z,101425.59
2018-01-26T10:24:53.189Z,101421.34
2018-01-26T10:27:21.308Z,101427.96
2018-01-26T10:29:49.422Z,101433.66
2018-01-26T10:32:17.527Z,101434.75
2018-01-26T10:34:45.614Z,101432.30
2018-01-26T10:37:13.726Z,101436.14
2018-01-26T10:39:41.840Z,101436.01
2018-01-26T10:42:09.941Z,101439.38
2018-01-26T10:44:38.062Z,101439.69
2018-01-26T10:47:06.157Z,101444.89
2018-01-26T10:49:34.287Z,101447.47
2018-01-26T10:52:02.412Z,101454.77
2018-01-26T10:54:30.526Z,101452.52
2018-01-26T10:56:58.641Z,101455.93
2018-01-26T10:59:26.789Z,101454.59
2018-01-26T11:01:54.891Z,101467.27
2018-01-26T11:04:23.016Z,101462.66
2018-01-26T11:06:51.189Z,101468.94
2018-01-26T11:09:19.252Z,101481.18
2018-01-26T11:11:47.361Z,101480.25
2018-01-26T11:14:15.457Z,101480.55
2018-01-26T11:16:43.566Z,101477.80
2018-01-26T11:19:11.679Z,101476.67
2018-01-26T11:21:39.769Z,101478.45
2018-01-26T11:24:07.905Z,101474.75
2018-01-26T11:26:36.010Z,101475.20
2018-01-26T11:29:04.122Z,101482.17
2018-01-26T11:31:32.249Z,101477.80
2018-01-26T11:34:00.372Z,101475.77
2018-01-26T11:36:28.489Z,101483.81
2018-01-26T11:38:56.590Z,101485.45
2018-01-26T11:41:24.704Z,101489.55
2018-01-26T11:43:52.814Z,101492.05
2018-01-26T11:46:20.944Z,101492.86
2018-01-26T11:48:49.050Z,101510.73
2018-01-26T11:51:17.168Z,101514.08
2018-01-26T11:53:45.262Z,101512.28
2018-01-26T11:56:13.374Z,101510.94
2018-01-26T11:58:41.485Z,101510.69
2018-01-26T12:01:09.604Z,101511.86
2018-01-26T12:03:37.715Z,101510.55
2018-01-26T12:06:05.838Z,101516.14
2018-01-26T12:08:33.957Z,101505.95
2018-01-26T12:11:02.072Z,101504.55
2018-01-26T12:13:30.196Z,101498.59
2018-01-26T12:15:58.314Z,101502.84
2018-01-26T12:18:26.460Z,101503.23
2018-01-26T12:20:54.561Z,101507.22
2018-01-26T12:23:23.585Z,101508.54
2018-01-26T12:25:51.708Z,101513.53
2018-01-26T12:28:21.784Z,101506.17
2018-01-26T12:30:49.919Z,101510.66
2018-01-26T12:33:22.136Z,101511.17
2018-01-26T12:35:50.272Z,101515.26
2018-01-26T12:38:18.395Z,101515.02
2018-01-26T12:40:46.512Z,101506.73
2018-01-26T12:43:14.647Z,101507.34
2018-01-26T12:45:42.750Z,101501.41
2018-01-26T12:48:21.153Z,101509.00
2018-01-26T12:50:49.282Z,101510.22
2018-01-26T12:53:17.400Z,101511.47
2018-01-26T12:55:45.521Z,101515.42
2018-01-26T12:58:13.622Z,101516.17
2018-01-26T13:00:41.751Z,101521.30
2018-01-26T13:03:09.859Z,101518.11
2018-01-26T13:05:38.926Z,101520.59
2018-01-26T13:08:07.056Z,101523.61
2018-01-26T13:10:35.160Z,101531.52
2018-01-26T13:13:03.265Z,101533.90
2018-01-26T13:15:31.389Z,101531.42
2018-01-26T13:17:59.514Z,101531.66
2018-01-26T13:20:27.635Z,101538.30
2018-01-26T13:22:58.921Z,101545.06
2018-01-26T13:25:27.026Z,101545.41
2018-01-26T13:28:05.762Z,101548.80
2018-01-26T13:30:33.884Z,101547.19
2018-01-26T13:33:02.003Z,101544.56
2018-01-26T13:35:34.114Z,101541.20
2018-01-26T13:38:02.244Z,101542.27
2018-01-26T13:40:37.454Z,101545.10
2018-01-26T13:43:08.569Z,101550.07
2018-01-26T13:45:36.730Z,101554.61
2018-01-26T13:48:04.878Z,101554.17
2018-01-26T13:50:50.175Z,101554.92
2018-01-26T13:53:18.295Z,101556.00
2018-01-26T13:55:46.414Z,101556.88
2018-01-26T13:58:31.414Z,101559.33
2018-01-26T14:00:59.501Z,101555.61
2018-01-26T14:03:27.618Z,101556.61
2018-01-26T14:05:55.732Z,101561.79
2018-01-26T14:08:23.866Z,101563.68
2018-01-26T14:10:55.343Z,101564.05
2018-01-26T14:13:23.467Z,101561.09
2018-01-26T14:15:57.504Z,101557.77
2018-01-26T14:18:26.601Z,101565.23
2018-01-26T14:20:54.739Z,101574.48
2018-01-26T14:23:28.466Z,101580.25
2018-01-26T14:25:56.602Z,101590.51
2018-01-26T14:28:24.699Z,101596.08
2018-01-26T14:30:52.841Z,101608.19
2018-01-26T14:33:20.945Z,101611.11
2018-01-26T14:36:13.369Z,101620.64
2018-01-26T14:38:42.448Z,101620.30
2018-01-26T14:41:17.439Z,101623.19
2018-01-26T14:43:51.422Z,101629.51
2018-01-26T14:46:19.578Z,101633.38
2018-01-26T14:48:48.736Z,101634.61
2018-01-26T14:51:17.207Z,101627.74
2018-01-26T14:53:45.445Z,101637.45
2018-01-26T14:56:15.638Z,101640.70
2018-01-26T14:58:45.088Z,101642.78
2018-01-26T15:01:14.128Z,101654.80
2018-01-26T15:03:42.233Z,101654.03
2018-01-26T15:06:17.420Z,101649.16
2018-01-26T15:08:45.529Z,101658.66
2018-01-26T15:11:13.841Z,101657.33
2018-01-26T15:13:43.939Z,101665.64
2018-01-26T15:16:12.052Z,101668.50
2018-01-26T15:18:41.188Z,101666.98
2018-01-26T15:21:09.334Z,101675.04
2018-01-26T15:23:37.523Z,101674.85
2018-01-26T15:26:10.434Z,101668.55
2018-01-26T15:28:38.658Z,101666.92
2018-01-26T15:31:08.698Z,101672.67
2018-01-26T15:33:40.475Z,101673.90
2018-01-26T15:36:08.586Z,101677.25
2018-01-26T15:38:41.005Z,101685.51
2018-01-26T15:41:16.341Z,101680.33
2018-01-26T15:43:44.481Z,101692.47
2018-01-26T15:46:18.686Z,101700.64
2018-01-26T15:48:46.820Z,101703.20
2018-01-26T15:51:15.900Z,101709.66
2018-01-26T15:53:44.029Z,101711.52
2018-01-26T15:56:14.098Z,101711.25
2018-01-26T15:58:42.207Z,101719.09
2018-01-26T16:01:14.029Z,101725.47
2018-01-26T16:03:42.138Z,101734.44
2018-01-26T16:06:13.456Z,101736.58
2018-01-26T16:08:41.559Z,101741.80
2018-01-26T16:11:11.652Z,101740.00
2018-01-26T16:13:39.765Z,101741.55
2018-01-26T16:16:14.099Z,101745.75
2018-01-26T16:18:42.221Z,101751.33
2018-01-26T16:21:10.335Z,101752.50
2018-01-26T16:23:41.921Z,101758.16
2018-01-26T16:26:10.035Z,101762.10
2018-01-26T16:28:49.492Z,101758.92
2018-01-26T16:31:18.534Z,101765.45
2018-01-26T16:34:00.515Z,101767.75
2018-01-26T16:36:28.619Z,101782.80
2018-01-26T16:38:56.747Z,101780.08
2018-01-26T16:41:25.763Z,101790.75
2018-01-26T16:43:55.778Z,101792.23
2018-01-26T16:46:23.900Z,101802.16
2018-01-26T16:48:52.003Z,101811.17
2018-01-26T16:51:23.693Z,101805.02
2018-01-26T16:53:58.387Z,101806.98
2018-01-26T16:56:28.454Z,101820.48
2018-01-26T16:58:56.576Z,101825.27
2018-01-26T17:01:24.700Z,101831.42
2018-01-26T17:03:52.819Z,101827.48
2018-01-26T17:06:21.844Z,101829.16
2018-01-26T17:08:49.964Z,101833.98
2018-01-26T17:11:21.872Z,101834.34
2018-01-26T17:13:51.932Z,101836.47
2018-01-26T17:16:23.661Z,101849.61
2018-01-26T17:18:53.783Z,101844.56
2018-01-26T17:21:21.878Z,101850.45
2018-01-26T17:23:49.991Z,101845.08
2018-01-26T17:26:28.708Z,101847.45
2018-01-26T17:29:00.811Z,101852.78
2018-01-26T17:31:28.913Z,101852.52
2018-01-26T17:33:57.991Z,101853.99
2018-01-26T17:36:30.863Z,101853.92
2018-01-26T17:38:59.008Z,101860.59
2018-01-26T17:41:27.087Z,101868.57
2018-01-26T17:43:55.208Z,101869.80
2018-01-26T17:46:23.297Z,101877.77
2018-01-26T17:48:51.410Z,101887.66
2018-01-26T17:51:19.506Z,101892.92
2018-01-26T17:53:47.607Z,101893.30
2018-01-26T17:56:15.742Z,101886.02
2018-01-26T17:58:43.860Z,101899.27
2018-01-26T18:01:11.964Z,101893.20
2018-01-26T18:03:40.068Z,101900.45
2018-01-26T18:06:08.188Z,101909.09
2018-01-26T18:08:36.295Z,101913.06
2018-01-26T18:11:05.407Z,101912.89
2018-01-26T18:13:33.524Z,101918.17
2018-01-26T18:16:02.572Z,101917.38
2018-01-26T18:18:30.767Z,101918.13
2018-01-26T18:20:58.963Z,101920.17
2018-01-26T18:23:27.092Z,101928.72
2018-01-26T18:28:48.761Z,101929.22
2018-01-26T18:31:21.304Z,101928.53
2018-01-26T18:33:49.419Z,101937.01
2018-01-26T18:36:30.340Z,101935.22
2018-01-26T18:38:58.456Z,101936.42
2018-01-26T18:41:26.573Z,101937.25
2018-01-26T18:44:14.028Z,101943.59
2018-01-26T18:46:42.135Z,101952.91
2018-01-26T18:49:10.251Z,101949.27
2018-01-26T18:51:42.116Z,101957.80
2018-01-26T18:54:10.256Z,101959.13
2018-01-26T18:56:45.189Z,101963.58
2018-01-26T18:59:13.308Z,101956.40
2018-01-26T19:01:41.738Z,101970.23
2018-01-26T19:04:09.851Z,101969.23
2018-01-26T19:06:37.975Z,101969.95
2018-01-26T19:09:08.082Z,101974.98
2018-01-26T19:11:36.201Z,101980.83
2018-01-26T19:14:04.336Z,101984.12
2018-01-26T19:16:36.459Z,101989.75
2018-01-26T19:19:04.631Z,101986.45
2018-01-26T19:21:32.752Z,101991.23
2018-01-26T19:24:06.838Z,101990.66
2018-01-26T19:26:34.940Z,101993.63
2018-01-26T19:29:04.017Z,101995.49
2018-01-26T19:31:34.141Z,102001.14
2018-01-26T19:34:02.260Z,102017.14
2018-01-26T19:36:44.670Z,102007.77
2018-01-26T19:39:12.778Z,102019.55
2018-01-26T19:41:40.893Z,102015.33
2018-01-26T19:44:09.939Z,102016.67
2018-01-26T19:46:38.045Z,102022.32
2018-01-26T19:49:07.075Z,102025.24
2018-01-26T19:51:35.199Z,102023.84
2018-01-26T19:54:06.935Z,102031.95
2018-01-26T19:56:35.021Z,102042.55
2018-01-26T19:59:04.107Z,102043.37
2018-01-26T20:01:32.219Z,102051.15
2018-01-26T20:04:06.300Z,102048.74
2018-01-26T20:06:51.870Z,102062.03
2018-01-26T20:09:25.900Z,102060.38
2018-01-26T20:11:59.706Z,102061.05
2018-01-26T20:14:27.837Z,102067.70
2018-01-26T20:16:55.943Z,102072.15
2018-01-26T20:19:24.046Z,102073.61
2018-01-26T20:21:53.090Z,102073.94
2018-01-26T20:24:26.799Z,102076.08
2018-01-26T20:26:54.924Z,102079.85
2018-01-26T20:29:29.770Z,102088.98
2018-01-26T20:31:57.889Z,102095.22
2018-01-26T20:34:25.999Z,102103.78
2018-01-26T20:36:56.057Z,102105.81
2018-01-26T20:39:24.170Z,102112.53
2018-01-26T20:41:55.861Z,102119.49
2018-01-26T20:44:23.988Z,102122.89
2018-01-26T20:46:52.096Z,102123.95
2018-01-26T20:49:23.270Z,102122.06
2018-01-26T20:51:51.373Z,102122.72
2018-01-26T20:54:19.490Z,102129.11
2018-01-26T20:56:48.540Z,102132.80
2018-01-26T20:59:16.673Z,102141.66
2018-01-26T21:02:03.674Z,102143.39
2018-01-26T21:04:42.898Z,102145.02
2018-01-26T21:07:36.222Z,102152.61
2018-01-26T21:10:04.340Z,102147.27
2018-01-26T21:12:36.322Z,102156.30
2018-01-26T21:15:04.439Z,102159.48
2018-01-26T21:17:32.567Z,102161.84
2018-01-26T21:20:00.671Z,102167.61
2018-01-26T21:22:28.783Z,102170.37
2018-01-26T21:27:52.312Z,102162.78
2018-01-26T21:30:20.414Z,102167.18
2018-01-26T21:32:50.525Z,102171.34
2018-01-26T21:35:18.641Z,102170.36
2018-01-26T21:37:57.983Z,102176.30
2018-01-26T21:40:26.999Z,102183.52
2018-01-26T21:43:04.781Z,102189.52
2018-01-26T21:45:33.782Z,102197.48
2018-01-26T21:48:01.894Z,102198.17
2018-01-26T21:50:43.422Z,102203.02
2018-01-26T21:53:13.462Z,102196.73
2018-01-26T21:55:41.563Z,102194.99
2018-01-26T21:58:09.657Z,102193.21
2018-01-26T22:00:37.772Z,102198.59
2018-01-26T22:03:05.879Z,102204.53
2018-01-26T22:05:33.991Z,102199.92
2018-01-26T22:10:54.988Z,102206.20
2018-01-26T22:13:23.099Z,102213.98
2018-01-26T22:15:51.215Z,102209.37
2018-01-26T22:18:19.313Z,102210.44
2018-01-26T22:20:47.421Z,102213.82
2018-01-26T22:23:15.534Z,102213.23
2018-01-26T22:25:43.641Z,102217.98
2018-01-26T22:28:15.686Z,102219.77
2018-01-26T22:30:43.778Z,102225.86
2018-01-26T22:33:29.608Z,102226.45
2018-01-26T22:35:57.715Z,102232.48
2018-01-26T22:38:27.807Z,102229.88
2018-01-26T22:40:55.927Z,102242.19
2018-01-26T22:46:17.315Z,102247.11
2018-01-26T22:48:50.725Z,102250.98
2018-01-26T22:51:18.857Z,102259.69
2018-01-26T22:53:47.978Z,102261.52
2018-01-26T22:56:16.091Z,102260.95
2018-01-26T22:58:44.198Z,102262.46
2018-01-26T23:01:15.990Z,102268.47
2018-01-26T23:03:44.090Z,102271.05
2018-01-26T23:06:12.213Z,102273.52
2018-01-26T23:08:40.374Z,102275.77
2018-01-26T23:11:10.414Z,102276.08
2018-01-26T23:13:38.532Z,102272.31
2018-01-26T23:16:06.657Z,102274.99
2018-01-26T23:18:34.754Z,102276.41
2018-01-26T23:21:02.857Z,102276.36
2018-01-26T23:23:30.985Z,102272.66
2018-01-26T23:26:04.487Z,102284.80
2018-01-26T23:28:32.597Z,102280.29
2018-01-26T23:34:00.094Z,102284.71
2018-01-26T23:36:34.892Z,102292.51
2018-01-26T23:39:03.010Z,102294.02
2018-01-26T23:41:31.146Z,102293.43
2018-01-26T23:44:14.024Z,102296.34
2018-01-26T23:46:42.130Z,102299.05
2018-01-26T23:49:14.773Z,102298.80
2018-01-26T23:51:42.892Z,102308.66
2018-01-26T23:54:10.985Z,102303.55
2018-01-26T23:56:51.497Z,102307.82
2018-01-26T23:59:19.607Z,102308.98
